createdAt,value
2023-02-05T00:01:23.595Z,12.67
2023-02-05T00:03:52.171Z,13.63
2023-02-05T00:06:20.576Z,16.07
2023-02-05T00:08:48.816Z,14.50
2023-02-05T00:11:17.224Z,13.27
2023-02-05T00:13:45.608Z,13.37
2023-02-05T00:16:15.410Z,12.97
2023-02-05T00:18:44.110Z,15.57
2023-02-05T00:21:12.717Z,16.60
2023-02-05T00:23:41.462Z,15.63
2023-02-05T00:26:10.767Z,12.03
2023-02-05T00:28:39.339Z,13.80
2023-02-05T00:31:19.685Z,15.03
2023-02-05T00:33:48.140Z,13.80
2023-02-05T00:36:16.901Z,14.63
2023-02-05T00:38:45.869Z,13.83
2023-02-05T00:41:14.154Z,12.83
2023-02-05T00:43:42.906Z,15.33
2023-02-05T00:46:12.177Z,14.07
2023-02-05T00:48:41.068Z,15.40
2023-02-05T00:51:09.270Z,14.63
2023-02-05T00:53:37.538Z,14.67
2023-02-05T00:56:05.862Z,11.83
2023-02-05T00:58:34.296Z,13.33
2023-02-05T01:01:02.595Z,13.87
2023-02-05T01:03:32.426Z,11.67
2023-02-05T01:06:03.141Z,11.70
2023-02-05T01:08:31.425Z,11.60
2023-02-05T01:11:00.405Z,13.83
2023-02-05T01:13:28.746Z,12.17
2023-02-05T01:15:57.104Z,12.67
2023-02-05T01:18:25.363Z,12.43
2023-02-05T01:20:53.604Z,13.13
2023-02-05T01:23:21.787Z,12.17
2023-02-05T01:25:50.040Z,16.03
2023-02-05T01:28:18.410Z,12.67
2023-02-05T01:30:50.699Z,11.23
2023-02-05T01:33:19.364Z,12.70
2023-02-05T01:35:47.896Z,11.50
2023-02-05T01:38:16.445Z,13.10
2023-02-05T01:40:45.008Z,16.07
2023-02-05T01:43:14.685Z,11.27
2023-02-05T01:45:43.088Z,13.37
2023-02-05T01:48:11.599Z,14.30
2023-02-05T01:50:44.261Z,10.73
2023-02-05T01:53:17.377Z,11.87
2023-02-05T01:55:47.156Z,15.07
2023-02-05T01:58:15.609Z,14.20
2023-02-05T02:00:44.553Z,11.70
2023-02-05T02:03:15.019Z,11.20
2023-02-05T02:05:43.329Z,12.03
2023-02-05T02:08:12.452Z,11.37
2023-02-05T02:10:42.287Z,10.90
2023-02-05T02:13:10.916Z,10.67
2023-02-05T02:15:39.572Z,10.57
2023-02-05T02:18:26.771Z,11.13
2023-02-05T02:21:07.248Z,13.17
2023-02-05T02:23:54.134Z,11.20
2023-02-05T02:26:34.666Z,11.97
2023-02-05T02:29:05.088Z,11.10
2023-02-05T02:31:43.695Z,11.13
2023-02-05T02:34:11.896Z,10.27
2023-02-05T02:36:45.864Z,12.73
2023-02-05T02:39:19.908Z,11.37
2023-02-05T02:41:55.586Z,11.10
2023-02-05T02:44:35.820Z,14.47
2023-02-05T02:47:06.833Z,13.57
2023-02-05T02:49:37.645Z,12.20
2023-02-05T02:52:07.963Z,11.83
2023-02-05T02:54:37.711Z,12.63
2023-02-05T02:57:08.026Z,12.37
2023-02-05T02:59:38.135Z,10.63
2023-02-05T03:02:07.758Z,10.93
2023-02-05T03:04:38.120Z,13.03
2023-02-05T03:07:14.141Z,11.43
2023-02-05T03:09:47.308Z,13.43
2023-02-05T03:12:16.537Z,12.63
2023-02-05T03:14:44.818Z,11.17
2023-02-05T03:17:18.591Z,12.23
2023-02-05T03:19:56.142Z,12.87
2023-02-05T03:22:24.405Z,12.37
2023-02-05T03:24:52.860Z,10.93
2023-02-05T03:27:22.676Z,11.27
2023-02-05T03:29:51.282Z,12.23
2023-02-05T03:32:25.511Z,13.43
2023-02-05T03:35:15.888Z,11.57
2023-02-05T03:37:49.948Z,12.97
2023-02-05T03:40:37.291Z,11.93
2023-02-05T03:43:05.462Z,13.13
2023-02-05T03:45:56.635Z,11.37
2023-02-05T03:48:45.589Z,11.90
2023-02-05T03:51:29.088Z,14.43
2023-02-05T03:54:04.649Z,13.17
2023-02-05T03:56:51.063Z,11.57
2023-02-05T03:59:20.347Z,12.37
2023-02-05T04:01:48.903Z,12.87
2023-02-05T04:04:17.358Z,12.57
2023-02-05T04:06:46.568Z,17.37
2023-02-05T04:09:14.812Z,12.17
2023-02-05T04:11:43.264Z,13.47
2023-02-05T04:14:11.457Z,13.63
2023-02-05T04:16:39.693Z,12.70
2023-02-05T04:19:07.920Z,12.20
2023-02-05T04:21:36.103Z,15.77
2023-02-05T04:24:04.763Z,11.83
2023-02-05T04:26:32.897Z,14.07
2023-02-05T04:29:01.123Z,11.73
2023-02-05T04:31:29.336Z,12.20
2023-02-05T04:33:57.447Z,15.23
2023-02-05T04:36:25.631Z,16.83
2023-02-05T04:38:53.771Z,15.33
2023-02-05T04:41:21.959Z,12.40
2023-02-05T04:43:50.221Z,14.93
2023-02-05T04:46:18.951Z,13.57
2023-02-05T04:48:47.102Z,14.97
2023-02-05T04:51:16.197Z,12.33
2023-02-05T04:53:44.777Z,13.83
2023-02-05T04:56:14.488Z,14.37
2023-02-05T04:58:42.991Z,13.93
2023-02-05T05:01:29.040Z,14.27
2023-02-05T05:03:57.199Z,15.83
2023-02-05T05:06:25.300Z,14.50
2023-02-05T05:08:53.408Z,18.63
2023-02-05T05:11:21.505Z,17.03
2023-02-05T05:13:51.882Z,14.70
2023-02-05T05:16:20.007Z,17.87
2023-02-05T05:18:48.211Z,18.50
2023-02-05T05:21:16.280Z,18.93
2023-02-05T05:23:44.339Z,15.80
2023-02-05T05:26:13.485Z,14.30
2023-02-05T05:28:41.552Z,15.67
2023-02-05T05:31:10.965Z,17.17
2023-02-05T05:33:39.501Z,15.30
2023-02-05T05:36:08.270Z,15.17
2023-02-05T05:38:36.732Z,14.90
2023-02-05T05:41:24.167Z,16.20
2023-02-05T05:43:53.378Z,15.37
2023-02-05T05:46:25.922Z,19.43
2023-02-05T05:48:55.662Z,18.80
2023-02-05T05:51:24.386Z,19.40
2023-02-05T05:53:52.594Z,17.00
2023-02-05T05:56:20.699Z,17.77
2023-02-05T05:58:49.200Z,17.23
2023-02-05T06:01:19.085Z,19.53
2023-02-05T06:03:47.227Z,16.03
2023-02-05T06:06:15.327Z,15.37
2023-02-05T06:08:43.472Z,18.57
2023-02-05T06:11:11.519Z,15.43
2023-02-05T06:13:40.027Z,19.30
2023-02-05T06:16:08.519Z,19.17
2023-02-05T06:18:36.762Z,15.43
2023-02-05T06:21:05.781Z,19.13
2023-02-05T06:23:34.371Z,20.13
2023-02-05T06:26:02.480Z,16.80
2023-02-05T06:28:30.612Z,16.00
2023-02-05T06:30:58.779Z,22.40
2023-02-05T06:33:26.867Z,18.90
2023-02-05T06:35:54.969Z,18.13
2023-02-05T06:38:23.107Z,20.13
2023-02-05T06:40:51.246Z,19.87
2023-02-05T06:43:19.410Z,17.67
2023-02-05T06:45:47.497Z,20.17
2023-02-05T06:48:16.487Z,18.30
2023-02-05T06:50:44.568Z,18.07
2023-02-05T06:53:12.742Z,18.63
2023-02-05T06:55:40.898Z,22.90
2023-02-05T06:58:09.066Z,22.10
2023-02-05T07:00:37.558Z,19.73
2023-02-05T07:03:05.756Z,19.60
2023-02-05T07:05:35.554Z,21.67
2023-02-05T07:08:05.350Z,24.33
2023-02-05T07:10:32.430Z,27.53
2023-02-05T07:12:59.516Z,23.10
2023-02-05T07:15:26.592Z,26.60
2023-02-05T07:17:53.928Z,31.57
2023-02-05T07:20:21.026Z,31.13
2023-02-05T07:22:48.190Z,35.60
2023-02-05T07:25:15.387Z,27.90
2023-02-05T07:27:42.528Z,31.47
2023-02-05T07:30:10.111Z,27.67
2023-02-05T07:32:37.193Z,26.57
2023-02-05T07:35:04.391Z,29.00
2023-02-05T07:37:31.480Z,34.50
2023-02-05T07:39:58.586Z,35.77
2023-02-05T07:42:25.664Z,33.97
2023-02-05T07:44:52.777Z,39.60
2023-02-05T07:47:19.835Z,41.63
2023-02-05T07:49:46.986Z,39.40
2023-02-05T07:52:14.060Z,36.73
2023-02-05T07:54:41.399Z,36.53
2023-02-05T07:57:08.529Z,37.20
2023-02-05T07:59:35.610Z,37.80
2023-02-05T08:02:02.684Z,42.17
2023-02-05T08:04:32.074Z,40.37
2023-02-05T08:06:59.338Z,38.50
2023-02-05T08:09:26.468Z,39.97
2023-02-05T08:11:53.640Z,36.40
2023-02-05T08:14:20.713Z,32.43
2023-02-05T08:16:47.858Z,30.47
2023-02-05T08:19:16.278Z,29.43
2023-02-05T08:21:43.466Z,26.73
2023-02-05T08:24:10.699Z,31.97
2023-02-05T08:26:37.838Z,24.30
2023-02-05T08:29:05.166Z,24.10
2023-02-05T08:31:32.271Z,19.07
2023-02-05T08:34:00.175Z,24.73
2023-02-05T08:36:27.496Z,20.33
2023-02-05T08:38:54.894Z,19.60
2023-02-05T08:41:22.424Z,17.83
2023-02-05T08:43:50.420Z,18.27
2023-02-05T08:46:19.697Z,18.70
2023-02-05T08:48:47.504Z,18.40
2023-02-05T08:51:15.214Z,15.90
2023-02-05T08:53:42.455Z,14.97
2023-02-05T08:56:14.027Z,11.63
2023-02-05T08:58:41.302Z,11.93
2023-02-05T09:01:11.777Z,15.30
2023-02-05T09:03:39.238Z,11.27
2023-02-05T09:06:07.301Z,8.00
2023-02-05T09:08:34.480Z,9.00
2023-02-05T09:11:01.887Z,9.73
2023-02-05T09:13:29.075Z,5.93
2023-02-05T09:15:56.343Z,6.13
2023-02-05T09:18:23.781Z,3.37
2023-02-05T09:20:51.324Z,8.00
2023-02-05T09:23:19.916Z,7.67
2023-02-05T09:25:47.203Z,3.97
2023-02-05T09:28:15.080Z,3.67
2023-02-05T09:30:43.804Z,4.90
2023-02-05T09:33:11.619Z,4.63
2023-02-05T09:35:38.723Z,4.40
2023-02-05T09:38:06.148Z,5.80
2023-02-05T09:40:36.406Z,6.32
2023-02-05T09:43:09.359Z,2.80
2023-02-05T09:45:38.572Z,3.87
2023-02-05T09:48:11.913Z,4.83
2023-02-05T09:50:41.333Z,1.90
2023-02-05T09:53:12.986Z,5.03
2023-02-05T09:55:42.428Z,1.60
2023-02-05T09:58:14.510Z,4.77
2023-02-05T10:00:49.562Z,2.83
2023-02-05T10:03:22.343Z,5.20
2023-02-05T10:05:58.351Z,1.80
2023-02-05T10:08:33.119Z,2.57
2023-02-05T10:11:02.416Z,3.93
2023-02-05T10:13:41.699Z,3.33
2023-02-05T10:16:23.139Z,2.60
2023-02-05T10:19:08.639Z,3.93
2023-02-05T10:21:41.637Z,3.73
2023-02-05T10:24:08.881Z,4.77
2023-02-05T10:26:47.473Z,4.30
2023-02-05T10:29:20.433Z,10.67
2023-02-05T10:32:13.609Z,5.80
2023-02-05T10:34:40.671Z,4.33
2023-02-05T10:37:15.071Z,10.60
2023-02-05T10:39:42.265Z,9.80
2023-02-05T10:42:12.141Z,5.57
2023-02-05T10:44:41.130Z,12.73
2023-02-05T10:47:19.092Z,10.90
2023-02-05T10:49:49.167Z,15.00
2023-02-05T10:52:16.756Z,8.07
2023-02-05T10:54:44.201Z,16.67
2023-02-05T10:57:12.667Z,9.90
2023-02-05T10:59:45.852Z,12.60
2023-02-05T11:02:13.220Z,10.67
2023-02-05T11:04:45.516Z,10.77
2023-02-05T11:07:13.926Z,8.77
2023-02-05T11:09:41.061Z,8.33
2023-02-05T11:12:19.562Z,5.90
2023-02-05T11:14:55.706Z,8.47
2023-02-05T11:17:26.958Z,6.90
2023-02-05T11:19:59.674Z,11.03
2023-02-05T11:22:35.143Z,9.57
2023-02-05T11:25:16.767Z,5.00
2023-02-05T11:27:54.064Z,12.10
2023-02-05T11:30:52.177Z,7.83
2023-02-05T11:33:24.785Z,5.00
2023-02-05T11:35:54.856Z,9.27
2023-02-05T11:38:29.665Z,14.70
2023-02-05T11:40:58.172Z,5.13
2023-02-05T11:43:30.835Z,6.03
2023-02-05T11:45:59.251Z,4.37
2023-02-05T11:48:29.467Z,8.20
2023-02-05T11:50:56.599Z,3.37
2023-02-05T11:53:24.599Z,9.03
2023-02-05T11:55:57.428Z,11.40
2023-02-05T11:58:36.145Z,19.40
2023-02-05T12:01:06.901Z,9.07
2023-02-05T12:03:34.698Z,7.13
2023-02-05T12:06:04.425Z,5.60
2023-02-05T12:08:31.560Z,3.93
2023-02-05T12:11:09.506Z,4.90
2023-02-05T12:14:02.071Z,6.67
2023-02-05T12:16:48.251Z,9.73
2023-02-05T12:19:34.395Z,8.67
2023-02-05T12:22:01.476Z,6.23
2023-02-05T12:24:42.442Z,6.50
2023-02-05T12:27:17.053Z,7.73
2023-02-05T12:30:19.405Z,9.33
2023-02-05T12:32:54.025Z,6.43
2023-02-05T12:35:27.174Z,4.90
2023-02-05T12:38:06.503Z,5.87
2023-02-05T12:40:52.100Z,6.50
2023-02-05T12:43:19.139Z,6.63
2023-02-05T12:45:53.589Z,8.43
2023-02-05T12:48:26.569Z,11.23
2023-02-05T12:51:09.466Z,9.27
2023-02-05T12:53:48.516Z,9.33
2023-02-05T12:56:54.006Z,12.00
2023-02-05T12:59:39.614Z,8.30
2023-02-05T13:02:12.366Z,10.23
2023-02-05T13:04:41.773Z,12.40
2023-02-05T13:07:18.969Z,10.53
2023-02-05T13:09:48.882Z,11.17
2023-02-05T13:12:23.279Z,13.63
2023-02-05T13:15:13.098Z,9.77
2023-02-05T13:17:43.411Z,9.97
2023-02-05T13:20:45.895Z,13.17
2023-02-05T13:23:32.581Z,16.13
2023-02-05T13:26:18.799Z,9.03
2023-02-05T13:28:53.005Z,10.90
2023-02-05T13:31:29.370Z,18.60
2023-02-05T13:33:58.407Z,9.90
2023-02-05T13:36:27.108Z,9.13
2023-02-05T13:39:13.453Z,11.30
2023-02-05T13:41:59.260Z,10.03
2023-02-05T13:44:35.383Z,6.83
2023-02-05T13:47:11.274Z,7.20
2023-02-05T13:49:41.656Z,9.67
2023-02-05T13:52:11.819Z,9.00
2023-02-05T13:54:38.883Z,11.73
2023-02-05T13:57:24.648Z,9.40
2023-02-05T13:59:53.087Z,7.17
2023-02-05T14:02:34.667Z,8.47
2023-02-05T14:05:02.781Z,12.47
2023-02-05T14:07:32.412Z,13.73
2023-02-05T14:10:00.938Z,13.63
2023-02-05T14:12:29.136Z,10.57
2023-02-05T14:15:14.812Z,9.37
2023-02-05T14:17:41.919Z,10.40
2023-02-05T14:20:35.088Z,9.13
2023-02-05T14:23:03.099Z,9.50
2023-02-05T14:25:36.862Z,10.80
2023-02-05T14:28:16.522Z,8.13
2023-02-05T14:30:51.316Z,10.20
2023-02-05T14:33:27.421Z,8.73
2023-02-05T14:35:58.723Z,13.90
2023-02-05T14:38:25.825Z,7.13
2023-02-05T14:41:07.828Z,12.50
2023-02-05T14:43:36.832Z,8.57
2023-02-05T14:46:22.639Z,13.47
2023-02-05T14:48:49.883Z,14.00
2023-02-05T14:51:32.375Z,10.23
2023-02-05T14:54:01.480Z,8.87
2023-02-05T14:56:33.860Z,10.53
2023-02-05T14:59:08.265Z,9.37
2023-02-05T15:01:38.413Z,11.57
2023-02-05T15:04:06.039Z,12.30
2023-02-05T15:06:39.956Z,13.43
2023-02-05T15:09:26.061Z,10.87
2023-02-05T15:11:53.160Z,14.77
2023-02-05T15:14:24.392Z,15.23
2023-02-05T15:17:16.091Z,17.37
2023-02-05T15:19:51.567Z,9.43
2023-02-05T15:22:26.524Z,12.67
2023-02-05T15:24:55.205Z,14.27
2023-02-05T15:27:24.306Z,14.00
2023-02-05T15:29:57.284Z,12.13
2023-02-05T15:32:33.476Z,18.57
2023-02-05T15:35:05.678Z,10.87
2023-02-05T15:37:53.373Z,16.47
2023-02-05T15:40:34.108Z,15.57
2023-02-05T15:43:12.846Z,12.73
2023-02-05T15:45:44.929Z,12.87
2023-02-05T15:48:14.050Z,16.10
2023-02-05T15:50:44.243Z,12.77
2023-02-05T15:53:30.015Z,20.17
2023-02-05T15:55:57.411Z,11.73
2023-02-05T15:58:26.020Z,16.67
2023-02-05T16:00:53.867Z,17.53
2023-02-05T16:03:34.496Z,14.67
2023-02-05T16:06:01.892Z,13.47
2023-02-05T16:08:29.314Z,16.90
2023-02-05T16:11:01.762Z,11.17
2023-02-05T16:13:30.002Z,16.67
2023-02-05T16:16:00.048Z,9.63
2023-02-05T16:18:44.909Z,14.20
2023-02-05T16:21:19.257Z,11.90
2023-02-05T16:23:48.978Z,18.27
2023-02-05T16:26:19.352Z,11.63
2023-02-05T16:28:56.433Z,13.50
2023-02-05T16:31:25.218Z,12.47
2023-02-05T16:34:01.592Z,17.10
2023-02-05T16:36:30.914Z,11.43
2023-02-05T16:39:01.357Z,13.23
2023-02-05T16:41:36.493Z,18.77
2023-02-05T16:44:06.080Z,18.70
2023-02-05T16:46:36.764Z,13.67
2023-02-05T16:49:28.107Z,16.70
2023-02-05T16:51:56.296Z,18.73
2023-02-05T16:54:28.054Z,15.33
2023-02-05T16:57:15.924Z,15.10
2023-02-05T16:59:53.855Z,18.13
2023-02-05T17:02:39.839Z,8.73
2023-02-05T17:05:08.756Z,17.90
2023-02-05T17:07:36.070Z,10.60
2023-02-05T17:10:14.107Z,17.10
2023-02-05T17:12:46.343Z,26.10
2023-02-05T17:15:16.458Z,19.97
2023-02-05T17:17:49.567Z,25.53
2023-02-05T17:20:16.622Z,22.77
2023-02-05T17:22:59.022Z,29.27
2023-02-05T17:25:26.665Z,12.17
2023-02-05T17:27:53.799Z,17.73
2023-02-05T17:30:21.243Z,29.33
2023-02-05T17:32:50.539Z,29.60
2023-02-05T17:35:18.554Z,23.63
2023-02-05T17:37:45.666Z,25.00
2023-02-05T17:40:13.334Z,32.93
2023-02-05T17:42:40.813Z,40.60
2023-02-05T17:45:16.099Z,28.97
2023-02-05T17:47:43.274Z,25.17
2023-02-05T17:50:10.637Z,25.10
2023-02-05T17:52:37.784Z,21.40
2023-02-05T17:55:05.234Z,30.83
2023-02-05T17:57:36.392Z,29.17
2023-02-05T18:00:04.955Z,22.80
2023-02-05T18:02:32.335Z,24.23
2023-02-05T18:04:59.478Z,15.90
2023-02-05T18:07:45.184Z,25.73
2023-02-05T18:10:13.714Z,21.10
2023-02-05T18:12:40.834Z,20.27
2023-02-05T18:15:08.392Z,26.70
2023-02-05T18:17:35.709Z,64.07
2023-02-05T18:20:04.239Z,57.93
2023-02-05T18:22:32.070Z,19.00
2023-02-05T18:24:59.217Z,17.50
2023-02-05T18:27:26.446Z,20.83
2023-02-05T18:29:53.727Z,13.93
2023-02-05T18:32:21.252Z,18.17
2023-02-05T18:34:48.319Z,29.37
2023-02-05T18:37:16.587Z,18.43
2023-02-05T18:39:43.958Z,19.10
2023-02-05T18:42:12.744Z,16.70
2023-02-05T18:44:40.071Z,12.30
2023-02-05T18:47:07.455Z,17.50
2023-02-05T18:49:35.327Z,20.43
2023-02-05T18:52:05.499Z,19.80
2023-02-05T18:54:33.748Z,18.20
2023-02-05T18:57:01.996Z,18.40
2023-02-05T18:59:30.314Z,17.97
2023-02-05T19:01:58.630Z,25.00
2023-02-05T19:04:27.940Z,18.97
2023-02-05T19:06:56.212Z,22.63
2023-02-05T19:09:25.550Z,18.03
2023-02-05T19:11:55.333Z,16.23
2023-02-05T19:14:25.235Z,16.83
2023-02-05T19:16:53.664Z,21.30
2023-02-05T19:19:26.660Z,16.07
2023-02-05T19:21:59.780Z,12.97
2023-02-05T19:24:27.994Z,14.63
2023-02-05T19:26:58.986Z,20.33
2023-02-05T19:29:27.592Z,15.03
2023-02-05T19:31:57.329Z,24.53
2023-02-05T19:34:27.643Z,20.17
2023-02-05T19:36:55.903Z,18.97
2023-02-05T19:39:24.042Z,17.33
2023-02-05T19:41:52.918Z,21.97
2023-02-05T19:44:21.419Z,14.03
2023-02-05T19:46:50.397Z,13.77
2023-02-05T19:49:19.606Z,17.33
2023-02-05T19:51:48.654Z,16.57
2023-02-05T19:54:17.195Z,16.77
2023-02-05T19:56:45.748Z,26.63
2023-02-05T19:59:16.644Z,22.50
2023-02-05T20:01:44.889Z,18.53
2023-02-05T20:04:17.049Z,22.83
2023-02-05T20:06:46.313Z,17.27
2023-02-05T20:09:14.871Z,23.20
2023-02-05T20:11:43.934Z,19.53
2023-02-05T20:14:12.599Z,23.00
2023-02-05T20:16:40.897Z,16.70
2023-02-05T20:19:10.021Z,17.27
2023-02-05T20:21:37.589Z,21.80
2023-02-05T20:24:05.000Z,18.07
2023-02-05T20:26:32.188Z,18.10
2023-02-05T20:29:17.986Z,22.03
2023-02-05T20:31:47.711Z,24.53
2023-02-05T20:34:18.332Z,17.87
2023-02-05T20:36:46.668Z,16.10
2023-02-05T20:39:14.408Z,24.73
2023-02-05T20:41:41.744Z,21.70
2023-02-05T20:44:08.827Z,21.70
2023-02-05T20:46:35.982Z,17.87
2023-02-05T20:49:03.510Z,23.43
2023-02-05T20:51:30.982Z,22.63
2023-02-05T20:53:58.745Z,15.90
2023-02-05T20:56:27.190Z,19.13
2023-02-05T20:58:56.136Z,22.07
2023-02-05T21:01:26.960Z,14.80
2023-02-05T21:03:58.512Z,18.27
2023-02-05T21:06:29.001Z,23.60
2023-02-05T21:08:59.023Z,26.70
2023-02-05T21:11:28.693Z,26.13
2023-02-05T21:13:56.103Z,15.70
2023-02-05T21:16:24.741Z,18.73
2023-02-05T21:18:52.828Z,14.90
2023-02-05T21:21:24.089Z,17.53
2023-02-05T21:23:58.687Z,26.63
2023-02-05T21:26:27.184Z,23.13
2023-02-05T21:29:02.032Z,17.03
2023-02-05T21:31:36.395Z,20.33
2023-02-05T21:34:04.181Z,16.60
2023-02-05T21:36:31.676Z,18.23
2023-02-05T21:38:59.132Z,23.60
2023-02-05T21:41:26.769Z,19.50
2023-02-05T21:43:55.154Z,27.93
2023-02-05T21:46:22.881Z,22.03
2023-02-05T21:48:51.346Z,22.33
2023-02-05T21:51:19.572Z,22.13
2023-02-05T21:53:47.238Z,24.53
2023-02-05T21:56:16.531Z,23.13
2023-02-05T21:58:43.653Z,27.30
2023-02-05T22:01:10.801Z,30.33
2023-02-05T22:03:37.980Z,20.77
2023-02-05T22:06:08.074Z,27.63
2023-02-05T22:08:35.998Z,31.67
2023-02-05T22:11:04.016Z,31.27
2023-02-05T22:13:32.478Z,15.70
2023-02-05T22:16:03.672Z,26.83
2023-02-05T22:18:30.792Z,20.77
2023-02-05T22:20:57.996Z,20.53
2023-02-05T22:23:25.106Z,21.50
2023-02-05T22:25:52.393Z,25.23
2023-02-05T22:28:19.655Z,21.10
2023-02-05T22:30:46.856Z,23.73
2023-02-05T22:33:13.985Z,31.70
2023-02-05T22:35:41.081Z,18.17
2023-02-05T22:38:08.198Z,24.57
2023-02-05T22:40:35.274Z,22.50
2023-02-05T22:43:02.447Z,26.73
2023-02-05T22:45:31.295Z,22.77
2023-02-05T22:47:59.066Z,26.00
2023-02-05T22:50:26.348Z,22.23
2023-02-05T22:52:53.554Z,16.97
2023-02-05T22:55:20.640Z,25.20
2023-02-05T22:57:47.761Z,20.20
2023-02-05T23:00:15.092Z,13.03
2023-02-05T23:02:42.315Z,23.37
2023-02-05T23:05:09.390Z,25.30
2023-02-05T23:07:36.451Z,16.43
2023-02-05T23:10:03.558Z,21.97
2023-02-05T23:12:30.630Z,17.37
2023-02-05T23:14:57.708Z,17.27
2023-02-05T23:17:24.930Z,31.87
2023-02-05T23:19:52.703Z,18.60
2023-02-05T23:22:19.827Z,30.80
2023-02-05T23:24:46.968Z,18.93
2023-02-05T23:27:14.408Z,26.73
2023-02-05T23:29:41.518Z,26.33
2023-02-05T23:32:14.814Z,29.00
2023-02-05T23:34:42.555Z,34.40
2023-02-05T23:37:09.724Z,24.20
2023-02-05T23:39:36.991Z,26.20
2023-02-05T23:42:05.642Z,35.77
2023-02-05T23:44:33.306Z,27.40
2023-02-05T23:47:00.422Z,24.83
2023-02-05T23:49:27.535Z,22.23
2023-02-05T23:51:55.343Z,27.80
2023-02-05T23:54:22.923Z,14.63
2023-02-05T23:56:50.306Z,12.27
2023-02-05T23:59:17.658Z,19.33
